Time;durP1;ratioP1;P1;durP2;ratioP2;P2;SDS_P1;SDS_P2;PMS_P1;PMS_P2;Temp;Humidity;BMP_temperature;BMP_pressure;BME280_temperature;BME280_humidity;BME280_pressure;Samples;Min_cycle;Max_cycle;Signal;HPM_P1;HPM_P2
2023/06/23 00:02:18;;;;;;;;;;;;;;;24.16;49.83;92677.81;2060215;69;20046;-80
2023/06/23 00:04:43;;;;;;;;;;;;;;;24.23;48.97;92670.69;2055087;69;20050;-80
2023/06/23 00:10:37;;;;;;;;;;;;;;;24.26;49.71;92695.19;2057601;69;20159;-80
2023/06/23 00:13:03;;;;;;;;;;;;;;;24.02;49.83;92684.88;2057253;69;20143;-80
2023/06/23 00:15:32;;;;;;;;;;;;;;;24.06;48.99;92669.81;2054579;69;20094;-80
2023/06/23 00:18:00;;;;;;;;;;;;;;;24.16;48.21;92669.91;2054671;69;20498;-80
2023/06/23 00:20:26;;;;;;;;;;;;;;;24.13;47.77;92670.59;2057993;69;20486;-80
2023/06/23 00:22:52;;;;;;;;;;;;;;;24.01;47.43;92683.44;2058285;69;20156;-81
2023/06/23 00:25:18;;;;;;;;;;;;;;;24.15;46.56;92685.00;2058524;69;20502;-80
2023/06/23 00:27:46;;;;;;;;;;;;;;;24.28;46.33;92684.44;2058277;69;20182;-79
2023/06/23 00:30:13;;;;;;;;;;;;;;;24.20;48.17;92689.38;2054577;69;20081;-79
2023/06/23 00:32:39;;;;;;;;;;;;;;;23.91;46.92;92694.81;2054605;69;20065;-79
2023/06/23 00:35:09;;;;;;;;;;;;;;;24.15;46.13;92688.59;2052002;69;20050;-80
2023/06/23 00:37:37;;;;;;;;;;;;;;;24.08;46.55;92696.44;2058526;69;20050;-81
2023/06/23 00:40:04;;;;;;;;;;;;;;;24.15;45.77;92690.75;2061088;69;20057;-79
2023/06/23 00:42:31;;;;;;;;;;;;;;;24.02;46.25;92701.41;2058063;69;20066;-79
2023/06/23 00:44:57;;;;;;;;;;;;;;;24.08;45.90;92713.69;2054665;69;20050;-79
2023/06/23 00:47:24;;;;;;;;;;;;;;;24.05;45.59;92725.88;2058410;69;20042;-79
2023/06/23 00:49:50;;;;;;;;;;;;;;;24.11;45.71;92730.97;2058497;69;20068;-79
2023/06/23 00:52:16;;;;;;;;;;;;;;;24.19;45.19;92742.53;2058376;69;20062;-78
2023/06/23 00:54:44;;;;;;;;;;;;;;;24.05;45.28;92746.75;2054916;69;20497;-79
2023/06/23 00:57:11;;;;;;;;;;;;;;;23.67;45.42;92747.00;2057673;69;20046;-79
2023/06/23 00:59:36;;;;;;;;;;;;;;;23.66;45.05;92754.16;2057679;69;20166;-78
2023/06/23 01:02:02;;;;;;;;;;;;;;;23.84;44.57;92750.78;2053890;69;20123;-78
2023/06/23 01:04:29;;;;;;;;;;;;;;;23.92;44.12;92750.91;2058127;69;20150;-79
2023/06/23 01:06:55;;;;;;;;;;;;;;;23.79;44.21;92752.91;2058259;69;20494;-80
2023/06/23 01:09:46;;;;;;;;;;;;;;;23.79;43.91;92752.19;2051970;69;20096;-80
2023/06/23 01:12:15;;;;;;;;;;;;;;;23.50;44.31;92756.78;2053042;69;20573;-79
2023/06/23 01:14:46;;;;;;;;;;;;;;;23.26;44.83;92762.91;2058213;69;20050;-80
2023/06/23 01:17:33;;;;;;;;;;;;;;;22.92;45.43;92771.75;2058105;69;20053;-77
2023/06/23 01:20:15;;;;;;;;;;;;;;;23.28;45.05;92766.56;2058152;69;20050;-78
2023/06/23 01:23:13;;;;;;;;;;;;;;;23.49;44.60;92764.69;2054989;69;20053;-78
2023/06/23 01:25:42;;;;;;;;;;;;;;;23.59;44.14;92758.34;2054598;69;20197;-78
2023/06/23 01:28:10;;;;;;;;;;;;;;;23.71;43.88;92761.41;2054681;69;20089;-79
2023/06/23 01:30:38;;;;;;;;;;;;;;;23.13;45.17;92762.00;2058406;69;20085;-79
2023/06/23 01:33:07;;;;;;;;;;;;;;;23.50;45.01;92771.91;2057998;69;20089;-79
2023/06/23 01:35:35;;;;;;;;;;;;;;;23.69;44.39;92786.53;2058187;69;20058;-79
2023/06/23 01:38:04;;;;;;;;;;;;;;;23.64;44.51;92785.75;2057929;69;20146;-79
2023/06/23 01:40:32;;;;;;;;;;;;;;;23.62;43.74;92779.94;2058284;69;20140;-78
2023/06/23 01:43:04;;;;;;;;;;;;;;;23.44;44.31;92789.03;2057795;69;20054;-78
2023/06/23 01:45:33;;;;;;;;;;;;;;;23.32;44.80;92801.09;2054411;69;20085;-78
2023/06/23 01:48:01;;;;;;;;;;;;;;;23.40;44.49;92814.81;2057832;69;20091;-78
2023/06/23 01:50:27;;;;;;;;;;;;;;;23.45;43.68;92807.00;2054549;69;20054;-78
2023/06/23 01:52:53;;;;;;;;;;;;;;;22.78;44.64;92798.03;2054697;69;20431;-77
2023/06/23 01:58:48;;;;;;;;;;;;;;;23.15;43.96;92799.38;2058360;69;20501;-78
2023/06/23 02:01:14;;;;;;;;;;;;;;;23.15;44.50;92805.13;2055152;69;20046;-79
2023/06/23 02:03:40;;;;;;;;;;;;;;;23.35;44.09;92813.31;2054687;69;20084;-78
2023/06/23 02:06:06;;;;;;;;;;;;;;;23.40;44.24;92825.59;2054156;69;20054;-79
2023/06/23 02:08:32;;;;;;;;;;;;;;;23.19;44.06;92833.19;2054274;69;20061;-78
2023/06/23 02:11:00;;;;;;;;;;;;;;;23.36;45.55;92857.84;2058057;69;20050;-78
2023/06/23 02:13:26;;;;;;;;;;;;;;;23.39;44.60;92876.56;2058187;69;20070;-78
2023/06/23 02:15:53;;;;;;;;;;;;;;;23.39;44.14;92873.69;2054790;69;20084;-78
2023/06/23 02:18:19;;;;;;;;;;;;;;;22.34;48.85;92907.66;2058121;69;20137;-78
2023/06/23 02:20:47;;;;;;;;;;;;;;;22.64;53.12;92909.69;2057913;69;20057;-79
2023/06/23 02:23:16;;;;;;;;;;;;;;;22.73;54.53;92925.66;2054116;69;20046;-79
2023/06/23 02:25:43;;;;;;;;;;;;;;;22.23;57.51;92944.00;2057587;69;20061;-78
2023/06/23 02:28:10;;;;;;;;;;;;;;;21.90;56.70;92956.88;2052111;69;20484;-78
2023/06/23 02:30:36;;;;;;;;;;;;;;;22.09;57.19;92963.75;2057747;69;20072;-79
2023/06/23 02:33:02;;;;;;;;;;;;;;;21.55;55.94;92946.75;2054784;69;20486;-79
2023/06/23 02:35:28;;;;;;;;;;;;;;;21.36;55.78;92945.56;2052177;69;20049;-78
2023/06/23 02:37:55;;;;;;;;;;;;;;;21.36;55.72;92954.16;2055128;69;20142;-78
2023/06/23 02:40:23;;;;;;;;;;;;;;;21.08;57.83;92956.28;2058500;69;20047;-79
2023/06/23 02:43:14;;;;;;;;;;;;;;;21.21;60.92;92964.50;2058361;69;20453;-78
2023/06/23 02:45:42;;;;;;;;;;;;;;;21.04;62.19;92976.94;2058158;69;20085;-78
2023/06/23 02:48:09;;;;;;;;;;;;;;;21.21;60.88;92966.63;2057615;69;20145;-78
2023/06/23 02:50:36;;;;;;;;;;;;;;;21.06;60.29;92980.56;2057797;69;20060;-79
2023/06/23 02:53:07;;;;;;;;;;;;;;;20.87;62.35;92969.31;2054501;69;20042;-79
2023/06/23 02:55:37;;;;;;;;;;;;;;;20.91;61.57;92983.75;2058399;69;20050;-79
2023/06/23 02:58:04;;;;;;;;;;;;;;;20.85;59.62;92986.41;2052057;69;20054;-79
2023/06/23 03:00:29;;;;;;;;;;;;;;;20.81;58.46;92987.78;2058391;69;20069;-79
2023/06/23 03:03:00;;;;;;;;;;;;;;;20.79;59.63;92984.84;2055305;69;20057;-79
2023/06/23 03:05:26;;;;;;;;;;;;;;;20.74;61.36;92999.72;2058931;69;20054;-78
2023/06/23 03:07:52;;;;;;;;;;;;;;;20.80;61.08;92997.03;2058742;69;20061;-78
2023/06/23 03:13:46;;;;;;;;;;;;;;;20.70;62.25;92991.75;2058500;69;20081;-78
2023/06/23 03:16:13;;;;;;;;;;;;;;;20.54;63.42;92992.03;2058897;69;20057;-78
2023/06/23 03:18:46;;;;;;;;;;;;;;;20.63;62.51;92977.97;2058780;69;20062;-79
2023/06/23 03:21:13;;;;;;;;;;;;;;;20.60;62.56;92985.75;2058026;69;20066;-78
2023/06/23 03:23:39;;;;;;;;;;;;;;;20.54;62.96;92992.03;2057803;69;20057;-78
2023/06/23 03:26:06;;;;;;;;;;;;;;;20.42;63.18;92979.50;2054571;69;20054;-78
2023/06/23 03:28:34;;;;;;;;;;;;;;;20.39;63.38;92983.69;2054702;69;20532;-78
2023/06/23 03:31:02;;;;;;;;;;;;;;;20.26;64.15;92986.22;2054757;69;20078;-79
2023/06/23 03:33:33;;;;;;;;;;;;;;;20.42;63.74;92988.81;2058004;69;20058;-78
2023/06/23 03:36:04;;;;;;;;;;;;;;;20.43;63.39;92980.94;2055089;69;20441;-78
2023/06/23 03:42:00;;;;;;;;;;;;;;;20.37;63.42;92995.81;2058762;69;20068;-78
2023/06/23 03:44:29;;;;;;;;;;;;;;;19.81;65.07;92998.41;2055152;69;20054;-78
2023/06/23 03:46:59;;;;;;;;;;;;;;;20.14;64.14;93011.56;2058690;69;20057;-78
2023/06/23 03:49:32;;;;;;;;;;;;;;;20.37;64.29;93015.09;2055653;69;20120;-78
2023/06/23 03:52:00;;;;;;;;;;;;;;;20.31;64.44;93002.06;2055618;69;20076;-78
2023/06/23 03:54:27;;;;;;;;;;;;;;;20.35;63.85;93004.34;2058730;69;20112;-78
2023/06/23 03:56:53;;;;;;;;;;;;;;;20.37;64.21;93007.25;2056789;69;20166;-78
2023/06/23 03:59:21;;;;;;;;;;;;;;;20.25;65.18;93006.88;2058583;69;20429;-76
2023/06/23 04:01:48;;;;;;;;;;;;;;;20.27;65.16;93010.53;2058695;69;20066;-77
2023/06/23 04:04:15;;;;;;;;;;;;;;;20.45;64.05;93003.91;2056440;69;20065;-78
2023/06/23 04:06:42;;;;;;;;;;;;;;;20.37;64.67;93006.50;2055956;69;20478;-77
2023/06/23 04:09:08;;;;;;;;;;;;;;;20.05;66.02;93016.31;2058610;69;20145;-77
2023/06/23 04:11:35;;;;;;;;;;;;;;;20.36;64.64;93019.34;2058650;69;20183;-78
2023/06/23 04:14:05;;;;;;;;;;;;;;;19.78;65.09;93017.59;2058583;69;20057;-79
2023/06/23 04:16:36;;;;;;;;;;;;;;;19.91;65.63;93018.00;2055317;69;20174;-77
2023/06/23 04:19:03;;;;;;;;;;;;;;;20.09;64.59;93009.97;2064510;69;20250;-79
2023/06/23 04:21:32;;;;;;;;;;;;;;;19.75;65.21;93006.81;2052992;69;20144;-78
2023/06/23 04:24:01;;;;;;;;;;;;;;;19.90;64.86;93007.97;2058363;69;20058;-78
2023/06/23 04:26:27;;;;;;;;;;;;;;;20.15;64.69;93007.31;2058015;69;20524;-79
2023/06/23 04:28:53;;;;;;;;;;;;;;;20.06;64.63;93006.31;2058602;69;20054;-79
2023/06/23 04:31:20;;;;;;;;;;;;;;;20.00;65.14;93009.00;2058525;69;20184;-79
2023/06/23 04:33:46;;;;;;;;;;;;;;;19.87;65.35;93012.16;2058665;69;20141;-79
2023/06/23 04:36:20;;;;;;;;;;;;;;;19.96;64.88;93006.03;2058687;69;20171;-79
2023/06/23 04:39:01;;;;;;;;;;;;;;;19.82;65.99;93013.41;2058631;69;20524;-77
2023/06/23 04:41:27;;;;;;;;;;;;;;;19.95;66.48;93023.84;2058303;69;20069;-77
2023/06/23 04:43:54;;;;;;;;;;;;;;;19.84;66.51;93028.50;2058581;69;20482;-78
2023/06/23 04:46:25;;;;;;;;;;;;;;;19.75;67.20;93029.66;2058543;69;20046;-78
2023/06/23 04:49:10;;;;;;;;;;;;;;;19.96;66.40;93033.88;2058770;69;20053;-78
2023/06/23 04:51:40;;;;;;;;;;;;;;;19.70;66.75;93043.06;2058374;69;20062;-78
2023/06/23 04:54:14;;;;;;;;;;;;;;;19.80;65.81;93042.66;2053507;69;20050;-78
2023/06/23 04:56:41;;;;;;;;;;;;;;;19.70;66.96;93048.03;2058371;69;20106;-78
2023/06/23 04:59:08;;;;;;;;;;;;;;;19.73;67.23;93049.56;2058119;69;20500;-76
2023/06/23 05:01:37;;;;;;;;;;;;;;;20.00;65.37;93046.16;2055374;69;20145;-78
2023/06/23 05:04:05;;;;;;;;;;;;;;;19.73;66.79;93050.28;2058376;69;20494;-79
2023/06/23 05:06:31;;;;;;;;;;;;;;;19.96;65.67;93053.88;2058197;69;20140;-79
2023/06/23 05:08:58;;;;;;;;;;;;;;;19.82;66.89;93059.84;2058325;69;20146;-78
2023/06/23 05:11:23;;;;;;;;;;;;;;;20.01;65.58;93064.03;2058421;69;20128;-78
2023/06/23 05:13:51;;;;;;;;;;;;;;;19.83;67.29;93067.03;2058555;69;20062;-78
2023/06/23 05:16:18;;;;;;;;;;;;;;;19.85;66.88;93069.22;2054459;69;20057;-79
2023/06/23 05:18:45;;;;;;;;;;;;;;;19.81;66.96;93069.81;2057259;69;20493;-80
2023/06/23 05:21:13;;;;;;;;;;;;;;;19.59;67.26;93072.66;2057203;69;20062;-79
2023/06/23 05:23:46;;;;;;;;;;;;;;;19.45;68.56;93067.19;2057631;69;20136;-78
2023/06/23 05:26:13;;;;;;;;;;;;;;;19.73;67.47;93076.00;2054770;69;20044;-79
2023/06/23 05:28:40;;;;;;;;;;;;;;;19.86;67.22;93079.25;2058028;69;20133;-79
2023/06/23 05:31:08;;;;;;;;;;;;;;;19.66;68.07;93070.78;2058260;69;20066;-80
2023/06/23 05:33:36;;;;;;;;;;;;;;;19.84;67.26;93077.06;2058512;69;20058;-79
2023/06/23 05:36:02;;;;;;;;;;;;;;;19.82;67.01;93079.13;2058178;69;20054;-79
2023/06/23 05:38:29;;;;;;;;;;;;;;;19.78;67.54;93091.16;2058418;69;20163;-79
2023/06/23 05:40:54;;;;;;;;;;;;;;;19.83;67.61;93084.16;2057986;69;20054;-79
2023/06/23 05:43:20;;;;;;;;;;;;;;;19.81;67.80;93101.25;2058421;69;20068;-79
2023/06/23 05:45:46;;;;;;;;;;;;;;;19.93;67.31;93104.50;2051953;69;20094;-78
2023/06/23 05:48:21;;;;;;;;;;;;;;;19.96;67.90;93111.00;2056036;69;20076;-78
2023/06/23 05:50:49;;;;;;;;;;;;;;;19.87;67.84;93117.84;2058039;69;20050;-79
2023/06/23 05:53:16;;;;;;;;;;;;;;;19.92;67.13;93128.03;2055024;69;20137;-78
2023/06/23 05:55:43;;;;;;;;;;;;;;;19.89;67.81;93132.94;2057964;69;20060;-78
2023/06/23 05:58:12;;;;;;;;;;;;;;;20.09;67.58;93147.16;2058016;69;20146;-78
2023/06/23 06:00:42;;;;;;;;;;;;;;;20.15;66.99;93152.34;2055267;69;20054;-79
2023/06/23 06:03:11;;;;;;;;;;;;;;;20.00;68.78;93151.88;2058439;69;20043;-79
2023/06/23 06:05:38;;;;;;;;;;;;;;;20.01;68.03;93152.59;2058406;69;20142;-79
2023/06/23 06:08:06;;;;;;;;;;;;;;;20.10;67.36;93156.47;2058278;69;20062;-79
2023/06/23 06:10:31;;;;;;;;;;;;;;;20.20;67.74;93160.38;2054543;69;20057;-79
2023/06/23 06:12:59;;;;;;;;;;;;;;;20.22;66.53;93168.31;2057602;69;20046;-79
2023/06/23 06:15:25;;;;;;;;;;;;;;;20.38;66.40;93168.81;2057649;69;20070;-78
2023/06/23 06:17:52;;;;;;;;;;;;;;;20.35;66.87;93175.16;2054251;69;20138;-78
2023/06/23 06:20:21;;;;;;;;;;;;;;;19.95;69.53;93178.13;2056087;69;20054;-80
2023/06/23 06:22:50;;;;;;;;;;;;;;;20.01;69.12;93169.75;2058194;69;20038;-80
2023/06/23 06:28:45;;;;;;;;;;;;;;;20.16;69.10;93177.41;2058170;69;20056;-81
2023/06/23 06:31:11;;;;;;;;;;;;;;;20.13;69.54;93175.88;2058067;69;20514;-82
2023/06/23 06:33:39;;;;;;;;;;;;;;;20.22;69.00;93176.88;2057985;69;20054;-82
2023/06/23 06:36:07;;;;;;;;;;;;;;;20.32;68.81;93180.06;2057858;69;20066;-79
2023/06/23 06:38:36;;;;;;;;;;;;;;;20.43;68.13;93190.41;2057648;69;20050;-80
2023/06/23 06:41:05;;;;;;;;;;;;;;;20.64;67.92;93191.09;2054076;69;20127;-83
2023/06/23 06:43:31;;;;;;;;;;;;;;;20.58;67.96;93179.47;2054782;69;20589;-80
2023/06/23 06:46:03;;;;;;;;;;;;;;;20.84;68.20;93185.97;2054912;69;20489;-80
2023/06/23 06:48:28;;;;;;;;;;;;;;;20.93;68.35;93186.97;2051509;69;20552;-78
2023/06/23 06:50:57;;;;;;;;;;;;;;;20.83;65.92;93180.94;2056792;69;20062;-78
2023/06/23 06:53:23;;;;;;;;;;;;;;;21.22;66.50;93185.69;2058072;69;20061;-81
2023/06/23 06:55:49;;;;;;;;;;;;;;;21.59;65.88;93178.16;2057848;69;20196;-81
2023/06/23 06:58:15;;;;;;;;;;;;;;;21.91;64.88;93186.88;2058251;69;20057;-81
2023/06/23 07:00:44;;;;;;;;;;;;;;;22.06;64.00;93191.56;2058380;69;20484;-79
2023/06/23 07:03:11;;;;;;;;;;;;;;;21.91;63.44;93199.06;2058307;69;20221;-80
2023/06/23 07:05:37;;;;;;;;;;;;;;;21.91;62.95;93199.06;2058274;69;20046;-79
2023/06/23 07:08:03;;;;;;;;;;;;;;;22.12;61.09;93199.63;2058369;69;20053;-78
2023/06/23 07:10:30;;;;;;;;;;;;;;;21.91;64.52;93204.09;2058352;69;20121;-80
2023/06/23 07:12:55;;;;;;;;;;;;;;;21.06;65.72;93206.69;2058302;69;20116;-79
2023/06/23 07:15:22;;;;;;;;;;;;;;;20.92;65.16;93209.13;2058375;69;20060;-79
2023/06/23 07:17:50;;;;;;;;;;;;;;;21.77;63.44;93207.31;2058219;69;20062;-79
2023/06/23 07:20:15;;;;;;;;;;;;;;;21.92;62.43;93212.00;2057784;69;20046;-81
2023/06/23 07:22:41;;;;;;;;;;;;;;;21.12;63.57;93211.13;2057346;69;20054;-80
2023/06/23 07:25:09;;;;;;;;;;;;;;;21.14;62.35;93211.22;2057874;69;20058;-80
2023/06/23 07:27:34;;;;;;;;;;;;;;;21.34;63.45;93217.53;2054585;69;20124;-79
2023/06/23 07:30:00;;;;;;;;;;;;;;;21.64;63.64;93216.97;2057822;69;20081;-80
2023/06/23 07:32:25;;;;;;;;;;;;;;;21.93;63.41;93215.59;2057870;69;20043;-81
2023/06/23 07:34:51;;;;;;;;;;;;;;;21.36;63.40;93222.63;2057435;69;20066;-80
2023/06/23 07:37:16;;;;;;;;;;;;;;;21.70;63.63;93220.00;2057074;69;20167;-79
2023/06/23 07:39:42;;;;;;;;;;;;;;;21.72;65.15;93222.91;2056791;69;20141;-80
2023/06/23 07:42:09;;;;;;;;;;;;;;;21.81;64.94;93211.00;2056685;69;20058;-79
2023/06/23 07:44:40;;;;;;;;;;;;;;;22.05;64.68;93230.25;2057015;69;20072;-80
2023/06/23 07:47:06;;;;;;;;;;;;;;;22.08;64.40;93237.47;2057039;69;20086;-80
2023/06/23 07:49:32;;;;;;;;;;;;;;;22.23;61.64;93235.78;2058362;69;20153;-83
2023/06/23 07:52:00;;;;;;;;;;;;;;;22.23;64.49;93227.16;2058477;69;20649;-80
2023/06/23 07:54:29;;;;;;;;;;;;;;;22.30;61.87;93235.22;2058474;69;20077;-80
2023/06/23 07:56:55;;;;;;;;;;;;;;;22.59;61.91;93244.56;2055535;69;20237;-80
2023/06/23 07:59:21;;;;;;;;;;;;;;;22.90;59.12;93248.19;2062872;69;20019;-82
2023/06/23 08:01:46;;;;;;;;;;;;;;;22.56;58.28;93249.50;2060877;69;20120;-80
2023/06/23 08:04:12;;;;;;;;;;;;;;;22.94;59.75;93251.88;2059079;69;20117;-81
2023/06/23 08:06:37;;;;;;;;;;;;;;;23.01;60.75;93259.22;2058809;69;20479;-84
2023/06/23 08:09:03;;;;;;;;;;;;;;;23.11;59.21;93255.88;2058462;69;20486;-82
2023/06/23 08:11:29;;;;;;;;;;;;;;;23.20;58.38;93257.50;2055326;69;20053;-83
2023/06/23 08:13:55;;;;;;;;;;;;;;;23.15;60.40;93278.94;2058380;69;20157;-83
2023/06/23 08:16:21;;;;;;;;;;;;;;;23.29;58.95;93276.38;2058674;69;20063;-83
2023/06/23 08:18:49;;;;;;;;;;;;;;;23.32;56.83;93283.63;2058578;69;20057;-83
2023/06/23 08:21:14;;;;;;;;;;;;;;;23.27;56.89;93287.81;2055367;69;20082;-83
2023/06/23 08:23:41;;;;;;;;;;;;;;;22.02;54.33;93292.53;2058562;69;20182;-82
2023/06/23 08:26:07;;;;;;;;;;;;;;;22.87;54.77;93301.22;2058471;69;20054;-83
2023/06/23 08:28:33;;;;;;;;;;;;;;;23.43;54.31;93307.56;2058453;69;20425;-82
2023/06/23 08:30:58;;;;;;;;;;;;;;;23.74;54.17;93314.03;2058572;69;20054;-81
2023/06/23 08:33:23;;;;;;;;;;;;;;;23.73;54.42;93316.16;2058671;69;20061;-83
2023/06/23 08:35:49;;;;;;;;;;;;;;;23.04;52.89;93314.56;2058729;69;20133;-85
2023/06/23 08:38:16;;;;;;;;;;;;;;;22.27;54.73;93319.78;2055239;69;20430;-83
2023/06/23 08:40:42;;;;;;;;;;;;;;;22.77;53.18;93322.50;2058601;69;20042;-83
2023/06/23 08:43:12;;;;;;;;;;;;;;;23.20;52.94;93326.44;2058625;69;20050;-83
2023/06/23 08:49:05;;;;;;;;;;;;;;;21.80;57.15;93324.16;2058669;69;20053;-83
2023/06/23 08:51:32;;;;;;;;;;;;;;;21.83;56.49;93327.81;2058761;69;20145;-83
2023/06/23 08:53:58;;;;;;;;;;;;;;;21.82;57.27;93329.97;2058517;69;20116;-83
2023/06/23 08:56:25;;;;;;;;;;;;;;;22.75;54.48;93328.19;2058696;69;20496;-82
2023/06/23 08:58:52;;;;;;;;;;;;;;;22.77;54.69;93324.63;2058583;69;20057;-83
2023/06/23 09:01:18;;;;;;;;;;;;;;;21.82;54.46;93326.38;2058718;69;20046;-83
2023/06/23 09:03:45;;;;;;;;;;;;;;;22.85;53.78;93324.84;2058265;69;20066;-83
2023/06/23 09:06:11;;;;;;;;;;;;;;;22.93;52.68;93327.94;2055231;69;20140;-83
2023/06/23 09:08:36;;;;;;;;;;;;;;;23.38;51.24;93328.28;2058472;69;20062;-83
2023/06/23 09:11:03;;;;;;;;;;;;;;;23.11;52.81;93327.66;2055174;69;20083;-83
2023/06/23 09:13:33;;;;;;;;;;;;;;;23.57;51.68;93339.50;2058669;69;20046;-83
2023/06/23 09:15:59;;;;;;;;;;;;;;;23.86;50.29;93337.25;2058615;69;20075;-83
2023/06/23 09:18:25;;;;;;;;;;;;;;;23.51;50.21;93333.63;2058704;69;20560;-87
2023/06/23 09:20:52;;;;;;;;;;;;;;;22.70;50.81;93337.38;2055721;69;20088;-91
2023/06/23 09:23:21;;;;;;;;;;;;;;;22.42;49.76;93338.09;2058924;69;20058;-88
2023/06/23 09:25:48;;;;;;;;;;;;;;;22.90;51.00;93343.63;2058757;69;20050;-82
2023/06/23 09:28:19;;;;;;;;;;;;;;;23.64;49.76;93343.28;2058278;69;20181;-83
2023/06/23 09:30:45;;;;;;;;;;;;;;;23.05;49.97;93333.25;2058561;69;20054;-82
2023/06/23 09:33:10;;;;;;;;;;;;;;;23.18;49.60;93335.00;2058488;69;20073;-83
2023/06/23 09:35:37;;;;;;;;;;;;;;;24.15;48.75;93335.72;2058735;69;20041;-83
2023/06/23 09:38:03;;;;;;;;;;;;;;;23.98;46.33;93331.78;2055163;69;20149;-83
2023/06/23 09:40:28;;;;;;;;;;;;;;;23.78;46.03;93334.97;2058408;69;20093;-83
2023/06/23 09:42:57;;;;;;;;;;;;;;;23.35;46.94;93324.63;2054956;69;20498;-84
2023/06/23 09:45:24;;;;;;;;;;;;;;;24.12;44.94;93319.09;2058552;69;20562;-83
2023/06/23 09:47:50;;;;;;;;;;;;;;;24.83;44.05;93321.19;2058293;69;20169;-83
2023/06/23 09:50:18;;;;;;;;;;;;;;;24.27;43.73;93318.69;2058243;69;20058;-83
2023/06/23 09:52:43;;;;;;;;;;;;;;;24.26;42.49;93316.50;2058128;69;20058;-81
2023/06/23 09:55:09;;;;;;;;;;;;;;;24.35;42.78;93321.72;2059640;69;20054;-81
2023/06/23 09:57:34;;;;;;;;;;;;;;;25.01;40.97;93322.91;2058600;69;20046;-79
2023/06/23 10:00:00;;;;;;;;;;;;;;;25.65;41.71;93319.59;2058543;69;20073;-79
2023/06/23 10:02:32;;;;;;;;;;;;;;;25.34;41.25;93316.28;2058450;69;20058;-80
2023/06/23 10:05:05;;;;;;;;;;;;;;;25.14;40.45;93324.59;2058586;69;20054;-82
2023/06/23 10:07:31;;;;;;;;;;;;;;;24.96;41.78;93309.88;2058406;69;20109;-84
2023/06/23 10:09:58;;;;;;;;;;;;;;;25.22;41.21;93315.38;2058438;69;20049;-85
2023/06/23 10:15:52;;;;;;;;;;;;;;;26.11;38.50;93298.59;2058565;69;20053;-81
2023/06/23 10:18:18;;;;;;;;;;;;;;;25.27;39.83;93306.09;2058180;69;20080;-82
2023/06/23 10:20:44;;;;;;;;;;;;;;;25.80;39.52;93306.16;2058536;69;20142;-82
2023/06/23 10:23:12;;;;;;;;;;;;;;;25.72;39.64;93300.25;2058618;69;20073;-82
2023/06/23 10:25:39;;;;;;;;;;;;;;;25.55;40.05;93311.53;2058767;69;20503;-85
2023/06/23 10:28:10;;;;;;;;;;;;;;;25.64;40.69;93308.78;2058405;69;20054;-83
2023/06/23 10:30:37;;;;;;;;;;;;;;;25.01;40.50;93312.13;2055095;69;20049;-80
2023/06/23 10:33:05;;;;;;;;;;;;;;;25.12;40.24;93318.09;2055171;69;20049;-80
2023/06/23 10:35:34;;;;;;;;;;;;;;;26.31;40.17;93315.44;2058447;69;20113;-82
2023/06/23 10:38:05;;;;;;;;;;;;;;;25.53;38.03;93314.41;2055053;69;20054;-80
2023/06/23 10:40:38;;;;;;;;;;;;;;;25.78;38.09;93312.59;2058450;69;20135;-79
2023/06/23 10:43:05;;;;;;;;;;;;;;;26.30;36.83;93308.94;2058356;69;20453;-80
2023/06/23 10:45:32;;;;;;;;;;;;;;;27.29;34.62;93310.66;2058436;69;20078;-80
2023/06/23 10:48:01;;;;;;;;;;;;;;;27.47;34.86;93313.69;2058321;69;20046;-80
2023/06/23 10:50:31;;;;;;;;;;;;;;;26.49;35.03;93317.84;2058362;69;20053;-80
2023/06/23 10:53:11;;;;;;;;;;;;;;;26.82;34.47;93310.94;2058395;69;20057;-80
2023/06/23 10:55:41;;;;;;;;;;;;;;;26.84;34.57;93316.00;2058385;69;20050;-80
2023/06/23 10:58:10;;;;;;;;;;;;;;;27.45;34.54;93312.94;2058354;69;20160;-81
2023/06/23 11:00:35;;;;;;;;;;;;;;;27.20;34.71;93318.53;2055066;69;20481;-80
2023/06/23 11:03:01;;;;;;;;;;;;;;;26.74;35.30;93322.41;2058171;69;20062;-81
2023/06/23 11:05:27;;;;;;;;;;;;;;;26.56;34.59;93325.84;2055120;69;20061;-81
2023/06/23 11:07:59;;;;;;;;;;;;;;;26.82;35.66;93325.41;2058375;69;20088;-83
2023/06/23 11:10:44;;;;;;;;;;;;;;;26.90;35.54;93335.59;2054662;69;20141;-79
2023/06/23 11:13:13;;;;;;;;;;;;;;;25.14;37.69;93338.28;2058380;69;20053;-82
2023/06/23 11:15:40;;;;;;;;;;;;;;;25.22;38.13;93359.31;2058400;69;20054;-79
2023/06/23 11:18:06;;;;;;;;;;;;;;;24.99;38.51;93354.56;2058325;69;20054;-80
2023/06/23 11:20:32;;;;;;;;;;;;;;;24.94;37.74;93350.88;2058262;69;20053;-85
2023/06/23 11:23:08;;;;;;;;;;;;;;;24.90;38.31;93359.47;2058491;69;20061;-86
2023/06/23 11:25:44;;;;;;;;;;;;;;;25.27;39.64;93360.09;2058918;69;20209;-82
2023/06/23 11:28:28;;;;;;;;;;;;;;;25.63;38.55;93359.22;2058987;69;20054;-81
2023/06/23 11:31:27;;;;;;;;;;;;;;;25.96;38.27;93349.63;2058877;69;20505;-79
2023/06/23 11:33:55;;;;;;;;;;;;;;;25.58;37.54;93352.66;2041136;70;20130;-81
2023/06/23 11:36:23;;;;;;;;;;;;;;;24.77;38.24;93358.50;2043046;70;20515;-81
2023/06/23 11:38:49;;;;;;;;;;;;;;;25.42;37.53;93352.41;2044589;70;20127;-80
2023/06/23 11:41:23;;;;;;;;;;;;;;;24.79;37.95;93360.72;2042312;70;20059;-78
2023/06/23 11:43:48;;;;;;;;;;;;;;;25.11;37.27;93357.69;2041138;70;20090;-78
2023/06/23 11:46:15;;;;;;;;;;;;;;;24.91;37.77;93352.25;2041195;70;20131;-78
2023/06/23 11:48:41;;;;;;;;;;;;;;;25.40;37.99;93361.75;2038084;70;20063;-79
2023/06/23 11:51:08;;;;;;;;;;;;;;;24.70;37.62;93359.09;2041111;70;20056;-79
2023/06/23 11:53:34;;;;;;;;;;;;;;;24.81;38.51;93358.56;2040909;70;20060;-77
2023/06/23 11:56:02;;;;;;;;;;;;;;;25.84;35.72;93341.53;2040953;70;20055;-76
2023/06/23 11:58:30;;;;;;;;;;;;;;;25.45;36.53;93348.88;2038234;70;20055;-76
2023/06/23 12:00:56;;;;;;;;;;;;;;;25.17;36.82;93349.16;2041129;70;20059;-79
2023/06/23 12:03:21;;;;;;;;;;;;;;;25.52;36.11;93338.91;2041153;70;20062;-79
2023/06/23 12:05:48;;;;;;;;;;;;;;;27.68;33.55;93346.38;2041168;70;20156;-76
2023/06/23 12:08:14;;;;;;;;;;;;;;;29.59;34.31;93352.13;2038123;70;20055;-78
2023/06/23 12:10:43;;;;;;;;;;;;;;;27.47;32.84;93345.47;2058787;69;20049;-79
2023/06/23 12:13:09;;;;;;;;;;;;;;;27.88;31.48;93345.78;2058447;69;20584;-78
2023/06/23 12:15:38;;;;;;;;;;;;;;;27.23;31.59;93354.69;2058555;69;20513;-77
2023/06/23 12:18:04;;;;;;;;;;;;;;;25.76;34.80;93361.63;2055402;69;20058;-78
2023/06/23 12:20:35;;;;;;;;;;;;;;;25.05;35.52;93346.75;2057882;69;20120;-78
2023/06/23 12:23:10;;;;;;;;;;;;;;;25.37;35.34;93351.63;2057901;69;20556;-77
2023/06/23 12:25:41;;;;;;;;;;;;;;;26.31;35.34;93342.13;2057804;69;20137;-79
2023/06/23 12:28:14;;;;;;;;;;;;;;;26.09;34.56;93348.34;2057960;69;20058;-78
2023/06/23 12:30:41;;;;;;;;;;;;;;;26.74;33.19;93344.81;2058084;69;20490;-79
2023/06/23 12:33:18;;;;;;;;;;;;;;;26.07;33.50;93342.56;2054320;69;20523;-78
2023/06/23 12:36:03;;;;;;;;;;;;;;;27.18;31.83;93343.81;2055339;69;20046;-77
2023/06/23 12:38:31;;;;;;;;;;;;;;;28.05;32.83;93335.78;2057848;69;20054;-79
2023/06/23 12:41:17;;;;;;;;;;;;;;;27.67;32.94;93330.44;2058043;69;20054;-77
2023/06/23 12:43:43;;;;;;;;;;;;;;;26.66;33.03;93328.09;2057791;69;20515;-78
2023/06/23 12:46:11;;;;;;;;;;;;;;;26.81;32.04;93315.28;2058097;69;20046;-78
2023/06/23 12:48:38;;;;;;;;;;;;;;;26.50;30.67;93313.50;2058648;69;20045;-77
2023/06/23 12:51:05;;;;;;;;;;;;;;;26.52;30.66;93320.03;2058266;69;20054;-78
2023/06/23 12:53:31;;;;;;;;;;;;;;;26.88;29.87;93313.16;2058232;69;20101;-78
2023/06/23 12:55:56;;;;;;;;;;;;;;;27.70;29.66;93313.84;2052516;69;20046;-78
2023/06/23 12:58:22;;;;;;;;;;;;;;;27.60;30.08;93321.00;2058680;69;20060;-80
2023/06/23 13:00:47;;;;;;;;;;;;;;;27.35;31.10;93313.59;2058645;69;20152;-80
2023/06/23 13:03:14;;;;;;;;;;;;;;;27.16;31.70;93312.72;2058228;69;20051;-80
2023/06/23 13:05:42;;;;;;;;;;;;;;;27.29;30.16;93316.44;2058576;69;20145;-80
2023/06/23 13:08:15;;;;;;;;;;;;;;;27.62;30.70;93317.38;2058289;69;20050;-80
2023/06/23 13:10:42;;;;;;;;;;;;;;;27.46;32.15;93320.19;2058575;69;20148;-80
2023/06/23 13:13:08;;;;;;;;;;;;;;;27.71;29.32;93309.50;2058380;69;20050;-79
2023/06/23 13:15:35;;;;;;;;;;;;;;;27.79;30.31;93300.91;2055303;69;20082;-80
2023/06/23 13:18:03;;;;;;;;;;;;;;;27.89;32.60;93295.16;2058785;69;20087;-80